Time;durP1;ratioP1;P1;durP2;ratioP2;P2;SDS_P1;SDS_P2;PMS_P1;PMS_P2;Temp;Humidity;BMP_temperature;BMP_pressure;BME280_temperature;BME280_humidity;BME280_pressure;Samples;Min_cycle;Max_cycle;Signal;HPM_P1;HPM_P2
2021/12/23 00:01:08;;;;;;;45.03;23.77;;;-1.10;99.90;;;;;;5052293;28;20052;-88
2021/12/23 00:03:34;;;;;;;47.38;23.00;;;-1.00;99.90;;;;;;5052243;28;20056;-90
2021/12/23 00:06:00;;;;;;;43.65;23.52;;;-1.00;99.90;;;;;;5053823;28;20021;-90
2021/12/23 00:08:26;;;;;;;47.20;24.67;;;-1.00;99.90;;;;;;5052205;28;20480;-89
2021/12/23 00:10:52;;;;;;;47.05;25.05;;;-1.10;99.90;;;;;;5054114;28;20036;-89
2021/12/23 00:13:18;;;;;;;40.95;22.17;;;-1.00;99.90;;;;;;5053772;28;20029;-89
2021/12/23 00:16:18;;;;;;;46.78;23.92;;;-1.00;99.90;;;;;;5057431;28;20064;-89
2021/12/23 00:23:52;;;;;;;52.72;25.58;;;-0.90;99.90;;;;;;5057812;28;20032;-89
2021/12/23 00:26:18;;;;;;;50.80;25.80;;;-1.00;99.90;;;;;;5055910;28;20107;-89
2021/12/23 00:28:44;;;;;;;46.25;23.35;;;-1.00;99.90;;;;;;5056116;28;20526;-89
2021/12/23 00:31:10;;;;;;;42.55;22.45;;;-0.90;99.90;;;;;;5057085;28;20036;-89
2021/12/23 00:33:37;;;;;;;42.42;23.38;;;-0.70;99.90;;;;;;5055787;28;20035;-89
2021/12/23 00:36:05;;;;;;;45.40;24.27;;;-0.60;99.90;;;;;;5055819;28;20025;-90
2021/12/23 00:38:39;;;;;;;41.78;22.80;;;-0.50;99.90;;;;;;5056895;28;20021;-89
2021/12/23 00:41:05;;;;;;;45.38;24.63;;;-0.50;99.90;;;;;;5055566;28;20543;-89
2021/12/23 00:43:32;;;;;;;43.17;23.02;;;-0.60;99.90;;;;;;5055693;28;20051;-89
2021/12/23 00:45:58;;;;;;;40.35;21.80;;;-0.70;99.90;;;;;;5055449;28;20476;-90
2021/12/23 00:48:25;;;;;;;40.63;22.52;;;-0.80;99.90;;;;;;5055814;28;20386;-89
2021/12/23 00:50:51;;;;;;;41.67;22.05;;;-0.80;99.90;;;;;;5055393;28;20021;-89
2021/12/23 00:53:19;;;;;;;44.38;23.65;;;-0.70;99.90;;;;;;5055355;28;20100;-89
2021/12/23 00:55:52;;;;;;;40.72;21.73;;;-0.70;99.90;;;;;;5055313;28;20029;-89
2021/12/23 00:58:18;;;;;;;41.85;22.42;;;-0.70;99.90;;;;;;5056454;28;20031;-89
2021/12/23 01:00:44;;;;;;;41.95;22.58;;;-0.70;99.90;;;;;;5055313;28;20043;-90
2021/12/23 01:03:11;;;;;;;46.42;24.35;;;-0.70;99.90;;;;;;5055248;28;20392;-89
2021/12/23 01:05:38;;;;;;;50.42;25.60;;;-0.80;99.90;;;;;;5056431;28;20108;-90
2021/12/23 01:08:04;;;;;;;48.38;25.10;;;-0.70;99.90;;;;;;5055521;28;20025;-89
2021/12/23 01:10:30;;;;;;;41.95;22.50;;;-0.60;99.90;;;;;;5056281;28;20032;-89
2021/12/23 01:13:02;;;;;;;43.72;24.02;;;-0.60;99.90;;;;;;5054925;28;20111;-89
2021/12/23 01:18:05;;;;;;;46.10;25.20;;;-0.80;99.90;;;;;;5056587;28;20029;-90
2021/12/23 01:20:35;;;;;;;41.78;22.05;;;-0.80;99.90;;;;;;5063264;28;20057;-87
2021/12/23 01:23:07;;;;;;;45.00;24.15;;;-0.80;99.90;;;;;;5068437;28;20098;-87
2021/12/23 01:25:35;;;;;;;44.33;23.60;;;-0.70;99.90;;;;;;5061146;28;20025;-88
2021/12/23 01:28:01;;;;;;;46.38;23.95;;;-0.90;99.90;;;;;;5057219;28;20048;-88
2021/12/23 01:30:27;;;;;;;44.50;23.45;;;-0.90;99.90;;;;;;5055281;28;20025;-88
2021/12/23 01:32:56;;;;;;;46.15;24.67;;;-1.00;99.90;;;;;;5056034;28;20021;-88
2021/12/23 01:35:23;;;;;;;46.88;24.70;;;-1.10;99.90;;;;;;5055096;28;20037;-88
2021/12/23 01:37:49;;;;;;;48.83;25.77;;;-1.30;99.90;;;;;;5054814;28;20087;-89
2021/12/23 01:40:17;;;;;;;44.20;22.95;;;-1.50;99.90;;;;;;5055449;28;20057;-90
2021/12/23 01:42:43;;;;;;;52.50;27.45;;;-1.30;99.90;;;;;;5055862;28;20074;-89
2021/12/23 01:45:19;;;;;;;46.85;23.58;;;-1.40;99.90;;;;;;5054501;28;20028;-88
2021/12/23 01:47:46;;;;;;;50.78;25.23;;;-1.40;99.90;;;;;;5055682;28;20025;-89
2021/12/23 01:50:15;;;;;;;50.35;24.83;;;-1.20;99.90;;;;;;5054287;28;20112;-89
2021/12/23 01:52:41;;;;;;;44.13;23.80;;;-1.40;99.90;;;;;;5054241;28;20067;-87
2021/12/23 01:55:09;;;;;;;54.90;26.70;;;-1.50;99.90;;;;;;5054286;28;20025;-88
2021/12/23 01:57:36;;;;;;;46.17;23.58;;;-1.60;99.90;;;;;;5054165;28;20400;-88
2021/12/23 02:00:13;;;;;;;50.47;23.98;;;-1.50;99.90;;;;;;5053943;28;20032;-88
2021/12/23 02:02:39;;;;;;;49.15;25.48;;;-1.70;99.90;;;;;;5054108;28;20051;-88
2021/12/23 02:05:07;;;;;;;53.83;25.55;;;-1.90;99.90;;;;;;5055246;28;20053;-88
2021/12/23 02:07:34;;;;;;;50.72;26.15;;;-2.20;99.90;;;;;;5053908;28;20021;-88
2021/12/23 02:10:00;;;;;;;55.05;25.55;;;-2.20;99.90;;;;;;5053939;28;20021;-88
2021/12/23 02:12:26;;;;;;;51.67;25.38;;;-2.30;99.90;;;;;;5055181;28;20477;-86
2021/12/23 02:14:52;;;;;;;49.25;24.75;;;-2.20;99.90;;;;;;5055070;28;20027;-88
2021/12/23 02:17:17;;;;;;;47.72;24.15;;;-2.20;99.90;;;;;;5053913;28;20108;-88
2021/12/23 02:19:43;;;;;;;48.75;25.55;;;-1.90;99.90;;;;;;5054219;28;20487;-88
2021/12/23 02:22:09;;;;;;;53.50;24.35;;;-1.90;99.90;;;;;;5053593;28;20423;-87
2021/12/23 02:24:36;;;;;;;47.95;23.85;;;-2.00;99.90;;;;;;5054790;28;20028;-88
2021/12/23 02:27:01;;;;;;;53.78;25.35;;;-2.00;99.90;;;;;;5053432;28;20025;-87
2021/12/23 02:29:27;;;;;;;50.35;24.70;;;-2.30;99.90;;;;;;5053495;28;20027;-89
2021/12/23 02:31:53;;;;;;;49.00;24.30;;;-2.20;99.90;;;;;;5053357;28;20058;-88
2021/12/23 02:34:21;;;;;;;54.42;25.50;;;-2.10;99.90;;;;;;5053609;28;20025;-89
2021/12/23 02:36:56;;;;;;;50.00;25.35;;;-2.00;99.90;;;;;;5053299;28;20049;-89
2021/12/23 02:39:24;;;;;;;45.85;23.42;;;-1.80;99.90;;;;;;5053265;28;20060;-89
2021/12/23 02:41:50;;;;;;;44.58;22.25;;;-1.60;99.90;;;;;;5053171;28;20029;-88
2021/12/23 02:44:17;;;;;;;46.75;24.23;;;-1.30;99.90;;;;;;5054469;28;20031;-89
2021/12/23 02:46:42;;;;;;;41.72;23.30;;;-1.20;99.90;;;;;;5054436;28;20017;-88
2021/12/23 02:49:09;;;;;;;43.72;22.45;;;-1.10;99.90;;;;;;5053020;28;20032;-89
2021/12/23 02:51:35;;;;;;;48.28;23.83;;;-1.00;99.90;;;;;;5053019;28;20029;-89
2021/12/23 02:54:00;;;;;;;47.83;24.33;;;-0.90;99.90;;;;;;5054561;28;20384;-89
2021/12/23 02:56:26;;;;;;;47.03;22.65;;;-0.90;99.90;;;;;;5054137;28;20427;-88
2021/12/23 02:58:52;;;;;;;45.10;24.10;;;-0.90;99.90;;;;;;5054181;28;20079;-89
2021/12/23 03:01:20;;;;;;;43.40;23.77;;;-1.00;99.90;;;;;;5052979;28;20021;-89
2021/12/23 03:03:46;;;;;;;41.10;22.00;;;-1.00;99.90;;;;;;5054589;28;20028;-88
2021/12/23 03:06:12;;;;;;;44.83;23.88;;;-1.30;99.90;;;;;;5036334;28;20025;-89
2021/12/23 03:08:47;;;;;;;43.78;22.42;;;-1.20;99.90;;;;;;5053074;28;20024;-89
2021/12/23 03:11:16;;;;;;;48.10;23.77;;;-1.20;99.90;;;;;;5054291;28;20104;-88
2021/12/23 03:13:42;;;;;;;47.88;23.70;;;-1.30;99.90;;;;;;5052685;28;20028;-88
2021/12/23 03:16:09;;;;;;;45.65;23.00;;;-1.30;99.90;;;;;;5052684;28;20456;-87
2021/12/23 03:18:35;;;;;;;47.58;23.98;;;-1.50;99.90;;;;;;5053796;28;20400;-88
2021/12/23 03:21:02;;;;;;;47.58;22.30;;;-1.70;99.90;;;;;;5052386;28;20052;-88
2021/12/23 03:23:27;;;;;;;44.35;22.77;;;-1.80;99.90;;;;;;5052499;28;20025;-88
2021/12/23 03:25:54;;;;;;;52.45;24.17;;;-1.70;99.90;;;;;;5035983;28;20085;-88
2021/12/23 03:28:20;;;;;;;45.13;23.08;;;-1.90;99.90;;;;;;5053788;28;20025;-88
2021/12/23 03:30:46;;;;;;;49.38;22.58;;;-2.00;99.90;;;;;;5052331;28;20396;-89
2021/12/23 03:33:12;;;;;;;47.72;23.35;;;-2.00;99.90;;;;;;5052380;28;20029;-88
2021/12/23 03:35:38;;;;;;;50.03;24.05;;;-2.00;99.90;;;;;;5056700;28;20088;-88
2021/12/23 03:38:05;;;;;;;51.50;24.63;;;-2.00;99.90;;;;;;5062118;28;20214;-87
2021/12/23 03:40:31;;;;;;;46.60;22.75;;;-2.00;99.90;;;;;;5055341;28;20045;-88
2021/12/23 03:42:57;;;;;;;40.53;21.33;;;-1.80;99.90;;;;;;5053849;28;20075;-89
2021/12/23 03:45:23;;;;;;;43.38;21.58;;;-1.70;99.90;;;;;;5052859;28;20021;-89
2021/12/23 03:47:50;;;;;;;41.53;20.92;;;-1.40;99.90;;;;;;5053352;28;20496;-88
2021/12/23 03:50:22;;;;;;;48.20;23.38;;;-1.30;99.90;;;;;;5052273;28;20017;-89
2021/12/23 03:52:48;;;;;;;48.40;23.38;;;-1.50;99.90;;;;;;5052272;28;20017;-89
2021/12/23 03:55:15;;;;;;;47.83;22.33;;;-1.30;99.90;;;;;;5053450;28;20053;-89
2021/12/23 03:57:41;;;;;;;46.75;22.50;;;-1.20;99.90;;;;;;5052113;28;20489;-89
2021/12/23 04:00:10;;;;;;;43.90;22.77;;;-1.10;99.90;;;;;;5053409;28;20029;-88
2021/12/23 04:02:36;;;;;;;45.47;23.15;;;-1.10;99.90;;;;;;5053281;28;20554;-88
2021/12/23 04:05:03;;;;;;;49.22;23.83;;;-1.30;99.90;;;;;;5053332;28;20385;-87
2021/12/23 04:07:29;;;;;;;46.63;24.42;;;-1.50;99.90;;;;;;5052028;28;20020;-88
2021/12/23 04:09:55;;;;;;;44.13;21.98;;;-1.60;99.90;;;;;;5052118;28;20036;-88
2021/12/23 04:12:21;;;;;;;46.08;23.80;;;-1.50;99.90;;;;;;5052152;28;20111;-89
2021/12/23 04:14:47;;;;;;;44.55;22.17;;;-1.40;99.90;;;;;;5052151;28;20546;-89
2021/12/23 04:17:13;;;;;;;46.33;22.70;;;-1.30;99.90;;;;;;5052167;28;20029;-89
2021/12/23 04:19:39;;;;;;;46.13;22.77;;;-1.30;99.90;;;;;;5051913;28;20051;-89
2021/12/23 04:22:05;;;;;;;46.22;22.88;;;-1.30;99.90;;;;;;5051915;28;20029;-88
2021/12/23 04:24:31;;;;;;;48.67;22.75;;;-1.30;99.90;;;;;;5053015;28;20021;-89
2021/12/23 04:26:57;;;;;;;41.30;22.63;;;-1.20;99.90;;;;;;5052144;28;20531;-89
2021/12/23 04:29:23;;;;;;;49.15;24.33;;;-1.40;99.90;;;;;;5053058;28;20053;-88
2021/12/23 04:31:49;;;;;;;43.15;21.92;;;-1.50;99.90;;;;;;5053161;28;20028;-89
2021/12/23 04:34:15;;;;;;;45.88;21.90;;;-1.60;99.90;;;;;;5053087;28;20031;-88
2021/12/23 04:36:40;;;;;;;42.95;21.88;;;-1.50;99.90;;;;;;5051571;28;20493;-85
2021/12/23 04:39:07;;;;;;;50.20;23.15;;;-1.40;99.90;;;;;;5051289;28;20121;-84
2021/12/23 04:41:32;;;;;;;41.83;21.13;;;-1.60;99.90;;;;;;5052652;28;20381;-84
2021/12/23 04:43:59;;;;;;;46.50;22.80;;;-1.50;99.90;;;;;;5051492;28;20028;-85
2021/12/23 04:46:25;;;;;;;41.58;21.50;;;-1.50;99.90;;;;;;5051373;28;20029;-85
2021/12/23 04:48:52;;;;;;;42.53;21.90;;;-1.30;99.90;;;;;;5051345;28;20028;-85
2021/12/23 04:51:19;;;;;;;45.53;22.50;;;-1.10;99.90;;;;;;5051427;28;20029;-85
2021/12/23 04:53:45;;;;;;;42.95;21.90;;;-1.00;99.90;;;;;;5051333;28;20040;-85
2021/12/23 04:56:13;;;;;;;47.08;21.02;;;-1.00;99.90;;;;;;5051336;28;20510;-85
2021/12/23 04:58:40;;;;;;;44.10;21.50;;;-1.00;99.90;;;;;;5051349;28;20086;-85
2021/12/23 05:01:08;;;;;;;44.70;22.35;;;-1.00;99.90;;;;;;5053937;28;20024;-85
2021/12/23 05:03:35;;;;;;;45.78;22.92;;;-0.90;99.90;;;;;;5056245;28;20021;-84
2021/12/23 05:06:01;;;;;;;47.40;23.35;;;-1.10;99.90;;;;;;5055155;28;20393;-84
2021/12/23 05:08:26;;;;;;;50.28;24.55;;;-1.20;99.90;;;;;;5056348;28;20017;-84
2021/12/23 05:10:52;;;;;;;41.17;21.23;;;-1.40;99.90;;;;;;5056086;28;20033;-84
2021/12/23 05:13:18;;;;;;;42.60;21.67;;;-1.50;99.90;;;;;;5054732;28;20397;-84
2021/12/23 05:15:44;;;;;;;43.10;21.60;;;-1.40;99.90;;;;;;5054694;28;20024;-85
2021/12/23 05:18:10;;;;;;;42.95;21.63;;;-1.40;99.90;;;;;;5054608;28;20075;-85
2021/12/23 05:20:36;;;;;;;44.55;22.02;;;-1.30;99.90;;;;;;5054504;28;20128;-84
2021/12/23 05:23:02;;;;;;;45.10;22.38;;;-1.30;99.90;;;;;;5056098;28;20013;-85
2021/12/23 05:25:28;;;;;;;44.03;21.30;;;-1.20;99.90;;;;;;5056047;28;20492;-85
2021/12/23 05:27:55;;;;;;;44.65;21.88;;;-1.10;99.90;;;;;;5054504;28;20021;-85
2021/12/23 05:30:23;;;;;;;42.17;21.50;;;-1.00;99.90;;;;;;5055961;28;20377;-85
2021/12/23 05:32:49;;;;;;;42.67;21.50;;;-1.00;99.90;;;;;;5055647;28;20025;-85
2021/12/23 05:35:17;;;;;;;47.78;23.00;;;-1.00;99.90;;;;;;5054370;28;20047;-85
2021/12/23 05:37:43;;;;;;;39.97;20.83;;;-1.00;99.90;;;;;;5055587;28;20469;-85
2021/12/23 05:40:12;;;;;;;44.22;22.73;;;-1.00;99.90;;;;;;5054031;28;20033;-86
2021/12/23 05:42:38;;;;;;;39.80;21.10;;;-1.00;99.90;;;;;;5054217;28;20104;-86
2021/12/23 05:45:04;;;;;;;40.42;21.98;;;-1.10;99.90;;;;;;5055472;28;20116;-85
2021/12/23 05:47:30;;;;;;;38.65;20.63;;;-1.20;99.90;;;;;;5054064;28;20021;-86
2021/12/23 05:49:55;;;;;;;38.38;19.98;;;-1.30;99.90;;;;;;5054135;28;20027;-85
2021/12/23 05:52:21;;;;;;;49.55;23.50;;;-1.10;99.90;;;;;;5054917;28;20021;-85
2021/12/23 05:54:47;;;;;;;41.35;20.58;;;-1.20;99.90;;;;;;5055525;28;20033;-85
2021/12/23 05:57:13;;;;;;;41.60;21.27;;;-1.30;99.90;;;;;;5053951;28;20542;-85
2021/12/23 05:59:39;;;;;;;44.35;20.98;;;-1.40;99.90;;;;;;5055681;28;20025;-85
2021/12/23 06:02:06;;;;;;;38.38;20.58;;;-1.30;99.90;;;;;;5053795;28;20062;-85
2021/12/23 06:04:35;;;;;;;43.22;22.65;;;-1.10;99.90;;;;;;5053838;28;20044;-85
2021/12/23 06:07:02;;;;;;;46.53;22.63;;;-1.00;99.90;;;;;;5053786;28;20066;-85
2021/12/23 06:09:27;;;;;;;40.55;20.65;;;-0.90;99.90;;;;;;5053730;28;20021;-85
2021/12/23 06:11:53;;;;;;;44.60;22.50;;;-0.90;99.90;;;;;;5053350;28;20388;-84
2021/12/23 06:14:21;;;;;;;43.22;21.30;;;-0.90;99.90;;;;;;5053642;28;20500;-85
2021/12/23 06:16:46;;;;;;;47.97;23.70;;;-0.90;99.90;;;;;;5055145;28;20020;-85
2021/12/23 06:19:12;;;;;;;39.63;21.08;;;-0.90;99.90;;;;;;5053509;28;20530;-84
2021/12/23 06:21:38;;;;;;;41.08;22.15;;;-1.00;99.90;;;;;;5053420;28;20029;-85
2021/12/23 06:24:04;;;;;;;41.53;21.55;;;-1.00;99.90;;;;;;5055317;28;20021;-86
2021/12/23 06:26:31;;;;;;;37.88;21.17;;;-0.90;99.90;;;;;;5053369;28;20507;-85
2021/12/23 06:28:57;;;;;;;42.40;20.40;;;-0.80;99.90;;;;;;5053302;28;20021;-85
2021/12/23 06:31:23;;;;;;;44.35;22.23;;;-0.70;99.90;;;;;;5054609;28;20029;-86
2021/12/23 06:33:49;;;;;;;42.30;22.35;;;-0.60;99.90;;;;;;5053254;28;20028;-85
2021/12/23 06:36:15;;;;;;;44.33;23.30;;;-0.70;99.90;;;;;;5053208;28;20116;-85
2021/12/23 06:38:42;;;;;;;39.88;21.00;;;-0.80;99.90;;;;;;5052937;28;20040;-84
2021/12/23 06:41:08;;;;;;;46.35;23.33;;;-0.70;99.90;;;;;;5052946;28;20116;-85
2021/12/23 06:43:34;;;;;;;45.05;22.58;;;-0.80;99.90;;;;;;5054354;28;20108;-85
2021/12/23 06:46:00;;;;;;;47.95;23.52;;;-0.80;99.90;;;;;;5052970;28;20112;-85
2021/12/23 06:48:26;;;;;;;42.92;22.30;;;-0.80;99.90;;;;;;5052856;28;20484;-85
2021/12/23 06:50:54;;;;;;;39.10;21.58;;;-0.90;99.90;;;;;;5052890;28;20037;-85
2021/12/23 06:53:21;;;;;;;42.40;20.98;;;-0.90;99.90;;;;;;5054166;28;20033;-85
2021/12/23 06:55:49;;;;;;;42.22;21.23;;;-0.70;99.90;;;;;;5052715;28;20025;-85
2021/12/23 06:58:15;;;;;;;45.05;23.40;;;-0.80;99.90;;;;;;5052735;28;20033;-85
2021/12/23 07:00:41;;;;;;;47.30;21.83;;;-0.70;99.90;;;;;;5052658;28;20028;-85
2021/12/23 07:03:07;;;;;;;42.60;21.40;;;-1.00;99.90;;;;;;5053947;28;20024;-85
2021/12/23 07:05:33;;;;;;;46.20;22.83;;;-1.10;99.90;;;;;;5053883;28;20017;-85
2021/12/23 07:08:10;;;;;;;47.25;24.30;;;-1.40;99.90;;;;;;5052656;28;20450;-85
2021/12/23 07:10:36;;;;;;;53.83;24.60;;;-1.60;99.90;;;;;;5054151;28;20488;-85
2021/12/23 07:13:03;;;;;;;49.33;23.40;;;-1.70;99.90;;;;;;5052518;28;20025;-85
2021/12/23 07:15:30;;;;;;;42.85;23.27;;;-1.80;99.90;;;;;;5052427;28;20595;-85
2021/12/23 07:17:57;;;;;;;54.42;24.17;;;-1.50;99.90;;;;;;5052651;28;20029;-85
2021/12/23 07:20:24;;;;;;;40.88;21.75;;;-1.30;99.90;;;;;;5052322;28;20459;-85
2021/12/23 07:22:50;;;;;;;49.42;23.95;;;-1.40;99.90;;;;;;5051770;28;20389;-85
2021/12/23 07:25:17;;;;;;;44.17;22.45;;;-1.70;99.90;;;;;;5053728;28;20047;-85
2021/12/23 07:27:44;;;;;;;41.88;21.65;;;-1.80;99.90;;;;;;5052272;28;20120;-84
2021/12/23 07:30:13;;;;;;;46.15;23.95;;;-1.80;99.90;;;;;;5053486;28;20036;-85
2021/12/23 07:32:39;;;;;;;54.42;25.35;;;-1.90;99.90;;;;;;5052196;28;20025;-85
2021/12/23 07:35:05;;;;;;;51.25;25.35;;;-1.90;99.90;;;;;;5053484;28;20024;-85
2021/12/23 07:37:31;;;;;;;51.60;26.45;;;-1.80;99.90;;;;;;5052181;28;20029;-86
2021/12/23 07:39:57;;;;;;;57.25;26.45;;;-1.90;99.90;;;;;;5053202;28;20048;-86
2021/12/23 07:42:27;;;;;;;52.00;25.23;;;-2.00;99.90;;;;;;5053138;28;20048;-86
2021/12/23 07:44:54;;;;;;;61.05;25.85;;;-1.80;99.90;;;;;;5052058;28;20044;-85
2021/12/23 07:47:20;;;;;;;44.70;23.38;;;-1.70;99.90;;;;;;5051947;28;20393;-85
2021/12/23 07:49:46;;;;;;;48.72;24.35;;;-1.50;99.90;;;;;;5053558;28;20421;-86
2021/12/23 07:52:12;;;;;;;46.42;23.33;;;-1.20;99.90;;;;;;5053218;28;20053;-85
2021/12/23 07:54:38;;;;;;;49.92;24.15;;;-1.00;99.90;;;;;;5051978;28;20056;-86
2021/12/23 07:57:04;;;;;;;44.75;21.63;;;-0.80;99.90;;;;;;5051854;28;20029;-85
2021/12/23 07:59:30;;;;;;;43.60;22.10;;;-0.70;99.90;;;;;;5051938;28;20503;-86
2021/12/23 08:01:57;;;;;;;45.55;21.88;;;-0.60;99.90;;;;;;5051804;28;20025;-85
2021/12/23 08:04:23;;;;;;;41.45;20.00;;;-0.50;99.90;;;;;;5052443;28;20021;-86
2021/12/23 08:06:55;;;;;;;42.20;20.90;;;-0.50;99.90;;;;;;5054498;28;20481;-86
2021/12/23 08:09:21;;;;;;;42.83;21.30;;;-0.40;99.90;;;;;;5054848;28;20381;-84
2021/12/23 08:11:48;;;;;;;43.03;21.73;;;-0.40;99.90;;;;;;5051867;28;20021;-87
2021/12/23 08:14:13;;;;;;;47.25;22.58;;;-0.50;99.90;;;;;;5053163;28;20109;-85
2021/12/23 08:16:39;;;;;;;45.38;21.63;;;-0.50;99.90;;;;;;5053288;28;20033;-84
2021/12/23 08:19:05;;;;;;;48.47;21.67;;;-0.40;99.90;;;;;;5051709;28;20033;-86
2021/12/23 08:21:31;;;;;;;39.40;20.23;;;-0.30;99.90;;;;;;5053420;28;20109;-85
2021/12/23 08:23:56;;;;;;;41.10;20.70;;;-0.10;99.90;;;;;;5051657;28;20112;-86
2021/12/23 08:26:27;;;;;;;38.90;20.13;;;0.00;99.90;;;;;;5051684;28;20028;-84
2021/12/23 08:28:54;;;;;;;40.88;20.33;;;0.10;99.90;;;;;;5051666;28;20021;-85
2021/12/23 08:31:21;;;;;;;40.78;19.73;;;0.20;99.90;;;;;;5052836;28;20392;-85
2021/12/23 08:33:47;;;;;;;42.00;21.02;;;0.10;99.90;;;;;;5054133;28;20025;-85
2021/12/23 08:36:14;;;;;;;44.63;20.83;;;0.10;99.90;;;;;;5055453;28;20056;-85
2021/12/23 08:38:40;;;;;;;42.78;19.67;;;-0.10;99.90;;;;;;5055194;28;20397;-84
2021/12/23 08:41:06;;;;;;;37.50;18.83;;;-0.20;99.90;;;;;;5055318;28;20455;-85
2021/12/23 08:43:32;;;;;;;36.13;18.85;;;-0.20;99.90;;;;;;5055252;28;20033;-85
2021/12/23 08:45:58;;;;;;;35.78;18.55;;;-0.10;99.90;;;;;;5056326;28;20020;-85
2021/12/23 08:48:23;;;;;;;39.60;19.50;;;-0.10;99.90;;;;;;5055066;28;20098;-86
2021/12/23 08:50:49;;;;;;;43.83;21.13;;;0.00;99.90;;;;;;5056583;28;20033;-86
2021/12/23 08:53:15;;;;;;;41.40;22.10;;;0.00;99.90;;;;;;5055095;28;20033;-85
2021/12/23 08:55:41;;;;;;;43.75;21.88;;;0.00;99.90;;;;;;5055007;28;20021;-86
2021/12/23 08:58:07;;;;;;;42.08;19.27;;;0.10;99.90;;;;;;5055024;28;20083;-85
2021/12/23 09:00:35;;;;;;;35.38;17.80;;;0.20;99.90;;;;;;5056137;28;20029;-85
2021/12/23 09:03:01;;;;;;;36.45;17.83;;;0.20;99.90;;;;;;5056183;28;20485;-85
2021/12/23 09:05:27;;;;;;;33.10;18.00;;;0.20;99.90;;;;;;5056083;28;20025;-86
2021/12/23 09:07:53;;;;;;;32.83;17.92;;;0.30;99.90;;;;;;5054852;28;20045;-85
2021/12/23 09:10:20;;;;;;;34.53;16.95;;;0.30;99.90;;;;;;5054804;28;20025;-85
2021/12/23 09:12:46;;;;;;;32.65;17.38;;;0.20;99.90;;;;;;5054682;28;20119;-85
2021/12/23 09:15:12;;;;;;;34.20;16.77;;;0.20;99.90;;;;;;5055951;28;20021;-85
2021/12/23 09:17:39;;;;;;;38.97;17.42;;;0.30;99.90;;;;;;5054608;28;20503;-85
2021/12/23 09:20:07;;;;;;;33.70;16.40;;;0.40;99.90;;;;;;5054595;28;20538;-85
2021/12/23 09:22:33;;;;;;;30.70;15.77;;;0.50;99.90;;;;;;5054463;28;20025;-85
2021/12/23 09:25:03;;;;;;;32.03;16.58;;;0.50;99.90;;;;;;5054347;28;20603;-86
2021/12/23 09:27:37;;;;;;;28.73;15.15;;;0.70;99.90;;;;;;5054233;28;20040;-86
2021/12/23 09:32:56;;;;;;;31.05;15.27;;;0.80;99.90;;;;;;5056061;28;20048;-85
2021/12/23 09:35:24;;;;;;;32.17;16.40;;;0.80;99.90;;;;;;5054244;28;20071;-85
2021/12/23 09:37:51;;;;;;;30.88;15.82;;;0.90;99.90;;;;;;5055426;28;20032;-85
2021/12/23 09:40:18;;;;;;;33.67;17.00;;;0.90;99.90;;;;;;5053831;28;20049;-85
2021/12/23 09:42:46;;;;;;;30.17;16.08;;;1.00;99.90;;;;;;5054113;28;20492;-86
2021/12/23 09:45:17;;;;;;;28.42;15.63;;;1.00;99.90;;;;;;5053554;28;20021;-86
2021/12/23 09:47:45;;;;;;;30.92;16.63;;;1.00;99.90;;;;;;5055208;28;20021;-86
2021/12/23 09:50:14;;;;;;;30.88;16.23;;;1.00;99.90;;;;;;5053938;28;20028;-86
2021/12/23 09:52:44;;;;;;;52.22;22.95;;;1.10;99.90;;;;;;5055200;28;20021;-85
2021/12/23 09:55:12;;;;;;;31.83;17.42;;;1.20;99.90;;;;;;5054152;28;20036;-85
2021/12/23 09:57:38;;;;;;;34.17;17.55;;;1.20;99.90;;;;;;5053824;28;20036;-86
2021/12/23 10:00:09;;;;;;;31.52;16.90;;;1.30;99.90;;;;;;5053743;28;20028;-85
2021/12/23 10:02:35;;;;;;;32.35;17.10;;;1.40;99.90;;;;;;5054994;28;20017;-85
2021/12/23 10:05:02;;;;;;;34.97;18.30;;;1.50;99.90;;;;;;5053769;28;20021;-86
2021/12/23 10:07:28;;;;;;;34.75;17.83;;;1.60;99.90;;;;;;5053745;28;20392;-86
2021/12/23 10:10:17;;;;;;;36.03;19.08;;;1.70;99.90;;;;;;5053594;28;20025;-86
2021/12/23 10:27:03;;;;;;;31.95;16.70;;;1.90;99.90;;;;;;5063939;28;20032;-84
2021/12/23 10:38:09;;;;;;;36.22;17.95;;;1.80;99.90;;;;;;5054921;28;20043;-84
2021/12/23 10:40:37;;;;;;;35.10;17.17;;;1.80;99.90;;;;;;5054060;28;20068;-84
2021/12/23 10:43:03;;;;;;;33.00;16.73;;;1.80;99.90;;;;;;5053051;28;20029;-84
2021/12/23 10:45:54;;;;;;;36.83;17.98;;;1.90;99.90;;;;;;5054394;28;20025;-84
2021/12/23 10:48:21;;;;;;;38.88;19.42;;;1.90;99.90;;;;;;5054363;28;20045;-83
2021/12/23 10:50:49;;;;;;;29.70;15.60;;;1.90;99.90;;;;;;5052771;28;20021;-84
2021/12/23 10:59:16;;;;;;;33.83;18.00;;;1.90;99.90;;;;;;5053438;28;20032;-84
2021/12/23 11:02:01;;;;;;;32.20;16.77;;;1.90;99.90;;;;;;5052513;28;20025;-84
2021/12/23 11:04:28;;;;;;;31.90;16.63;;;2.00;99.90;;;;;;5053125;28;20029;-84
2021/12/23 11:07:17;;;;;;;46.78;18.35;;;2.00;99.90;;;;;;5052513;28;20048;-84
2021/12/23 11:10:24;;;;;;;28.95;15.27;;;2.10;99.90;;;;;;5052862;28;20032;-84
2021/12/23 11:38:09;;;;;;;21.02;10.65;;;2.70;99.90;;;;;;5053398;28;20021;-84
2021/12/23 11:40:52;;;;;;;22.92;11.80;;;2.80;99.90;;;;;;5051790;28;20055;-84
2021/12/23 11:45:46;;;;;;;19.45;11.25;;;2.80;99.90;;;;;;5053695;28;20064;-84
2021/12/23 11:48:13;;;;;;;20.67;10.32;;;2.90;99.90;;;;;;5052746;28;20025;-85
2021/12/23 11:50:54;;;;;;;18.00;8.85;;;3.00;99.90;;;;;;5051870;28;20052;-85
2021/12/23 11:53:21;;;;;;;17.30;9.82;;;3.20;99.90;;;;;;5051955;28;20032;-84
2021/12/23 11:55:48;;;;;;;18.35;9.43;;;3.40;99.90;;;;;;5051846;28;20108;-84
2021/12/23 11:58:15;;;;;;;16.98;8.73;;;3.60;99.90;;;;;;5051853;28;20441;-84
2021/12/23 12:00:42;;;;;;;15.00;8.80;;;3.80;99.90;;;;;;5051614;28;20052;-84
2021/12/23 12:03:10;;;;;;;16.92;9.50;;;3.90;99.90;;;;;;5053154;28;20017;-84
2021/12/23 12:05:38;;;;;;;20.23;10.75;;;3.90;99.90;;;;;;5051821;28;20075;-84
2021/12/23 12:08:08;;;;;;;16.80;9.77;;;4.00;99.90;;;;;;5053085;28;20499;-84
2021/12/23 12:10:35;;;;;;;22.08;11.73;;;4.00;99.90;;;;;;5057215;28;20474;-84
2021/12/23 12:13:02;;;;;;;15.88;9.25;;;4.00;99.90;;;;;;5055873;28;20068;-81
2021/12/23 12:15:41;;;;;;;23.80;10.93;;;4.10;99.90;;;;;;5055726;28;20024;-81
2021/12/23 12:18:11;;;;;;;22.38;10.52;;;4.00;99.90;;;;;;5055703;28;20389;-83
2021/12/23 12:20:44;;;;;;;21.25;10.85;;;3.90;99.90;;;;;;5055514;28;20032;-83
2021/12/23 12:23:13;;;;;;;20.83;11.30;;;3.80;99.90;;;;;;5056761;28;20381;-84
2021/12/23 12:25:40;;;;;;;18.73;10.23;;;3.70;99.90;;;;;;5061532;28;20023;-83
2021/12/23 12:28:06;;;;;;;21.65;11.40;;;3.70;99.90;;;;;;5059393;28;20029;-82
2021/12/23 12:30:46;;;;;;;21.88;11.93;;;3.80;99.90;;;;;;5055732;28;20017;-84
2021/12/23 12:33:24;;;;;;;23.85;12.18;;;3.70;99.90;;;;;;5055540;28;20029;-85
2021/12/23 12:36:05;;;;;;;25.08;12.80;;;3.60;99.90;;;;;;5055548;28;20024;-83
2021/12/23 12:38:36;;;;;;;25.33;12.40;;;3.60;99.90;;;;;;5055330;28;20025;-84
2021/12/23 12:41:09;;;;;;;23.98;12.77;;;3.70;99.90;;;;;;5055245;28;20421;-83
2021/12/23 12:43:40;;;;;;;29.55;15.00;;;3.70;99.90;;;;;;5055005;28;20033;-80
2021/12/23 12:46:07;;;;;;;22.27;11.45;;;3.70;99.90;;;;;;5055268;28;20031;-80
2021/12/23 12:48:55;;;;;;;24.55;12.07;;;3.70;99.90;;;;;;5056423;28;20055;-80
2021/12/23 12:51:24;;;;;;;21.92;10.32;;;3.70;99.90;;;;;;5055155;28;20064;-80
2021/12/23 12:54:05;;;;;;;18.83;11.30;;;3.70;99.90;;;;;;5056630;28;20025;-80
2021/12/23 12:56:34;;;;;;;22.85;12.23;;;3.80;99.90;;;;;;5055125;28;20074;-80
2021/12/23 12:59:00;;;;;;;23.52;12.35;;;3.70;99.90;;;;;;5055013;28;20024;-81
2021/12/23 13:01:33;;;;;;;25.90;12.50;;;3.70;99.90;;;;;;5054910;28;20039;-80
2021/12/23 13:04:00;;;;;;;29.98;13.63;;;3.70;99.90;;;;;;5054954;28;20025;-79
2021/12/23 13:06:40;;;;;;;24.83;13.13;;;3.70;99.90;;;;;;5054920;28;20025;-79
2021/12/23 13:09:13;;;;;;;25.00;12.90;;;3.80;99.90;;;;;;5056144;28;20147;-80
2021/12/23 13:11:48;;;;;;;29.10;12.75;;;3.70;99.90;;;;;;5054882;28;20032;-80
2021/12/23 13:14:21;;;;;;;27.17;12.52;;;3.70;99.90;;;;;;5055353;28;20067;-80
2021/12/23 13:16:53;;;;;;;26.77;12.30;;;3.80;99.90;;;;;;5056048;28;20433;-80
2021/12/23 13:19:20;;;;;;;21.33;11.38;;;3.80;99.90;;;;;;5055840;28;20295;-80
2021/12/23 13:21:52;;;;;;;22.02;11.93;;;3.80;99.90;;;;;;5053326;28;20033;-80
2021/12/23 13:24:21;;;;;;;20.40;11.55;;;3.90;99.90;;;;;;5054539;28;20519;-80
2021/12/23 13:26:48;;;;;;;23.60;11.88;;;3.90;99.90;;;;;;5055812;28;20138;-81
2021/12/23 13:29:17;;;;;;;28.85;12.10;;;3.90;99.90;;;;;;5054472;28;20027;-80
2021/12/23 13:31:45;;;;;;;25.85;12.60;;;3.90;99.90;;;;;;5054461;28;20451;-80
2021/12/23 13:34:20;;;;;;;21.30;11.75;;;3.90;99.90;;;;;;5054375;28;20078;-80
2021/12/23 13:36:51;;;;;;;23.83;11.90;;;3.90;99.90;;;;;;5054392;28;20029;-80
2021/12/23 13:39:28;;;;;;;19.35;11.18;;;3.90;99.90;;;;;;5054108;28;20045;-80
2021/12/23 13:41:57;;;;;;;25.58;12.75;;;3.90;99.90;;;;;;5054203;28;20056;-80